createdAt,value
2017-07-09T00:01:17.376Z,76.60
2017-07-09T00:03:44.832Z,76.40
2017-07-09T00:06:12.292Z,76.30
2017-07-09T00:08:39.856Z,76.20
2017-07-09T00:11:07.411Z,76.10
2017-07-09T00:13:34.866Z,75.90
2017-07-09T00:16:02.330Z,76.00
2017-07-09T00:18:30.567Z,76.20
2017-07-09T00:20:58.252Z,76.10
2017-07-09T00:23:25.715Z,76.10
2017-07-09T00:25:53.276Z,76.30
2017-07-09T00:28:20.730Z,76.50
2017-07-09T00:30:48.204Z,76.50
2017-07-09T00:33:16.439Z,76.30
2017-07-09T00:35:43.890Z,76.30
2017-07-09T00:38:11.361Z,76.10
2017-07-09T00:40:38.927Z,76.00
2017-07-09T00:43:06.394Z,76.00
2017-07-09T00:45:33.864Z,75.80
2017-07-09T00:48:02.123Z,75.60
2017-07-09T00:50:29.674Z,75.50
2017-07-09T00:52:57.140Z,76.00
2017-07-09T00:55:24.686Z,76.20
2017-07-09T00:57:52.257Z,76.20
2017-07-09T01:00:19.712Z,76.20
2017-07-09T01:02:47.262Z,76.30
2017-07-09T01:05:14.718Z,76.20
2017-07-09T01:07:42.291Z,76.00
2017-07-09T01:10:09.829Z,75.90
2017-07-09T01:12:37.289Z,75.80
2017-07-09T01:15:04.753Z,75.90
2017-07-09T01:17:32.218Z,75.70
2017-07-09T01:19:59.767Z,75.80
2017-07-09T01:22:27.234Z,75.50
2017-07-09T01:24:55.498Z,75.50
2017-07-09T01:27:23.769Z,75.60
2017-07-09T01:29:51.247Z,75.50
2017-07-09T01:32:19.501Z,76.40
2017-07-09T01:34:46.980Z,75.80
2017-07-09T01:37:15.208Z,75.70
2017-07-09T01:39:42.694Z,75.60
2017-07-09T01:42:10.257Z,75.70
2017-07-09T01:44:37.725Z,75.60
2017-07-09T01:47:05.986Z,75.30
2017-07-09T01:49:33.531Z,75.30
2017-07-09T01:52:01.096Z,74.90
2017-07-09T01:54:28.674Z,75.00
2017-07-09T01:56:56.133Z,74.90
2017-07-09T01:59:24.352Z,75.10
2017-07-09T02:01:51.878Z,75.10
2017-07-09T02:04:20.127Z,74.50
2017-07-09T02:06:47.583Z,74.40
2017-07-09T02:09:15.148Z,74.60
2017-07-09T02:11:42.606Z,74.10
2017-07-09T02:14:10.163Z,74.60
2017-07-09T02:16:37.618Z,74.10
2017-07-09T02:19:05.078Z,73.50
2017-07-09T02:21:33.309Z,73.80
2017-07-09T02:24:00.798Z,73.00
2017-07-09T02:26:28.359Z,72.40
2017-07-09T02:28:55.919Z,72.30
2017-07-09T02:31:23.465Z,71.90
2017-07-09T02:33:50.931Z,71.80
2017-07-09T02:36:18.514Z,72.10
2017-07-09T02:38:46.742Z,71.50
2017-07-09T02:41:14.217Z,71.50
2017-07-09T02:43:41.686Z,71.70
2017-07-09T02:46:09.910Z,71.30
2017-07-09T02:48:37.374Z,71.20
2017-07-09T02:51:04.843Z,70.90
2017-07-09T02:53:32.326Z,70.80
2017-07-09T02:55:59.887Z,70.50
2017-07-09T02:58:27.448Z,70.70
2017-07-09T03:00:54.910Z,70.10
2017-07-09T03:03:23.179Z,69.90
2017-07-09T03:05:50.646Z,69.80
2017-07-09T03:08:18.901Z,70.30
2017-07-09T03:10:46.511Z,70.10
2017-07-09T03:13:13.926Z,69.80
2017-07-09T03:15:41.400Z,69.80
2017-07-09T03:18:09.618Z,70.30
2017-07-09T03:20:37.106Z,70.20
2017-07-09T03:23:04.673Z,70.40
2017-07-09T03:25:32.221Z,70.90
2017-07-09T03:27:59.800Z,70.90
2017-07-09T03:30:28.038Z,71.30
2017-07-09T03:32:55.502Z,71.10
2017-07-09T03:35:23.079Z,71.10
2017-07-09T03:37:50.630Z,70.90
2017-07-09T03:40:18.094Z,71.00
2017-07-09T03:42:45.638Z,71.20
2017-07-09T03:45:13.223Z,71.00
2017-07-09T03:47:41.455Z,70.90
2017-07-09T03:50:08.944Z,70.90
2017-07-09T03:52:36.398Z,71.20
2017-07-09T03:55:03.867Z,71.30
2017-07-09T03:57:32.096Z,72.40
2017-07-09T03:59:59.602Z,71.30
2017-07-09T04:02:27.870Z,71.20
2017-07-09T04:04:55.595Z,71.10
2017-07-09T04:07:23.053Z,70.60
2017-07-09T04:09:50.543Z,70.70
2017-07-09T04:12:18.009Z,70.40
2017-07-09T04:14:46.261Z,70.10
2017-07-09T04:17:13.822Z,70.10
2017-07-09T04:19:41.381Z,69.60
2017-07-09T04:22:08.933Z,69.70
2017-07-09T04:24:36.498Z,69.60
2017-07-09T04:27:04.067Z,68.90
2017-07-09T04:29:31.522Z,68.70
2017-07-09T04:31:59.079Z,68.10
2017-07-09T04:34:26.547Z,67.90
2017-07-09T04:36:54.088Z,68.00
2017-07-09T04:39:21.550Z,67.20
2017-07-09T04:41:49.014Z,67.00
2017-07-09T04:44:17.248Z,65.00
2017-07-09T04:46:44.732Z,65.70
2017-07-09T04:49:12.290Z,66.10
2017-07-09T04:51:39.757Z,66.80
2017-07-09T04:54:07.264Z,66.80
2017-07-09T04:56:34.766Z,67.00
2017-07-09T04:59:02.327Z,66.40
2017-07-09T05:01:29.860Z,66.30
2017-07-09T05:03:57.330Z,66.00
2017-07-09T05:06:26.612Z,65.70
2017-07-09T05:08:54.255Z,64.70
2017-07-09T05:11:21.706Z,64.30
2017-07-09T05:13:49.237Z,64.40
2017-07-09T05:16:17.496Z,64.50
2017-07-09T05:18:45.038Z,64.30
2017-07-09T05:21:12.499Z,64.60
2017-07-09T05:23:39.956Z,64.30
2017-07-09T05:26:07.557Z,64.30
2017-07-09T05:28:35.134Z,64.60
2017-07-09T05:31:02.596Z,64.70
2017-07-09T05:33:30.063Z,64.70
2017-07-09T05:35:57.555Z,64.30
2017-07-09T05:38:25.014Z,63.70
2017-07-09T05:40:52.468Z,63.20
2017-07-09T05:43:20.082Z,62.60
2017-07-09T05:45:47.544Z,63.00
2017-07-09T05:48:15.010Z,62.50
2017-07-09T05:50:42.491Z,62.30
2017-07-09T05:53:10.045Z,62.70
2017-07-09T05:55:37.598Z,62.40
2017-07-09T05:58:05.067Z,62.30
2017-07-09T06:00:32.528Z,62.50
2017-07-09T06:02:59.983Z,61.20
2017-07-09T06:05:27.494Z,61.40
2017-07-09T06:07:55.000Z,61.10
2017-07-09T06:10:22.462Z,60.80
2017-07-09T06:12:49.922Z,60.00
2017-07-09T06:15:17.395Z,59.40
2017-07-09T06:17:44.850Z,59.80
2017-07-09T06:20:12.393Z,59.20
2017-07-09T06:22:40.708Z,59.90
2017-07-09T06:25:08.219Z,59.90
2017-07-09T06:27:35.666Z,60.30
2017-07-09T06:30:03.134Z,59.70
2017-07-09T06:32:31.398Z,60.10
2017-07-09T06:34:58.967Z,59.60
2017-07-09T06:37:26.522Z,59.40
2017-07-09T06:39:54.076Z,59.10
2017-07-09T06:42:21.543Z,59.70
2017-07-09T06:44:49.811Z,59.40
2017-07-09T06:47:17.355Z,59.70
2017-07-09T06:49:44.864Z,59.40
2017-07-09T06:52:12.383Z,58.70
2017-07-09T06:54:39.947Z,56.50
2017-07-09T06:57:08.195Z,56.80
2017-07-09T06:59:35.651Z,57.70
2017-07-09T07:02:03.113Z,57.90
2017-07-09T07:04:30.571Z,57.80
2017-07-09T07:06:58.137Z,57.10
2017-07-09T07:09:25.592Z,56.80
2017-07-09T07:11:53.164Z,57.20
2017-07-09T07:14:20.726Z,57.60
2017-07-09T07:16:48.283Z,57.30
2017-07-09T07:19:15.746Z,57.00
2017-07-09T07:21:44.010Z,58.50
2017-07-09T07:24:11.474Z,58.30
2017-07-09T07:26:39.797Z,57.20
2017-07-09T07:29:07.284Z,57.10
2017-07-09T07:31:34.746Z,57.30
2017-07-09T07:34:02.305Z,56.00
2017-07-09T07:36:31.822Z,56.40
2017-07-09T07:38:59.369Z,57.60
2017-07-09T07:41:26.822Z,57.50
2017-07-09T07:43:54.381Z,57.70
2017-07-09T07:46:21.953Z,57.90
2017-07-09T07:48:49.515Z,57.80
2017-07-09T07:51:17.122Z,56.50
2017-07-09T07:53:44.581Z,57.40
2017-07-09T07:56:12.078Z,56.30
2017-07-09T07:58:39.634Z,56.10
2017-07-09T08:01:07.103Z,56.50
2017-07-09T08:03:34.650Z,56.00
2017-07-09T08:06:02.205Z,56.30
2017-07-09T08:08:29.766Z,56.90
2017-07-09T08:10:57.326Z,56.50
2017-07-09T08:13:24.873Z,57.10
2017-07-09T08:15:52.437Z,58.10
2017-07-09T08:18:20.006Z,57.80
2017-07-09T08:20:47.558Z,57.50
2017-07-09T08:23:15.012Z,57.50
2017-07-09T08:25:42.479Z,57.70
2017-07-09T08:28:10.025Z,58.60
2017-07-09T08:30:37.485Z,58.30
2017-07-09T08:33:05.008Z,58.40
2017-07-09T08:35:32.498Z,58.90
2017-07-09T08:37:59.961Z,59.30
2017-07-09T08:40:27.409Z,59.20
2017-07-09T08:42:54.885Z,59.20
2017-07-09T08:45:22.351Z,59.10
2017-07-09T08:47:50.614Z,59.90
2017-07-09T08:50:18.172Z,59.70
2017-07-09T08:52:45.731Z,59.70
2017-07-09T08:55:13.196Z,58.60
2017-07-09T08:57:40.741Z,59.00
2017-07-09T09:00:08.197Z,59.50
2017-07-09T09:02:35.667Z,59.10
2017-07-09T09:05:04.125Z,59.80
2017-07-09T09:07:31.689Z,59.50
2017-07-09T09:09:59.209Z,59.70
2017-07-09T09:12:27.014Z,59.90
2017-07-09T09:14:54.573Z,59.90
2017-07-09T09:17:22.033Z,59.80
2017-07-09T09:19:49.490Z,59.70
2017-07-09T09:22:17.046Z,59.80
2017-07-09T09:24:44.515Z,59.80
2017-07-09T09:27:11.978Z,59.70
2017-07-09T09:29:40.234Z,60.10
2017-07-09T09:32:07.785Z,60.00
2017-07-09T09:34:35.362Z,60.10
2017-07-09T09:37:03.634Z,59.60
2017-07-09T09:39:31.096Z,59.40
2017-07-09T09:41:59.363Z,58.40
2017-07-09T09:44:26.923Z,58.90
2017-07-09T09:46:54.589Z,59.60
2017-07-09T09:49:22.265Z,59.50
2017-07-09T09:51:50.569Z,59.20
2017-07-09T09:54:18.064Z,59.20
2017-07-09T09:56:45.630Z,58.90
2017-07-09T09:59:13.087Z,58.50
2017-07-09T10:01:40.646Z,58.90
2017-07-09T10:04:08.211Z,58.70
2017-07-09T10:06:35.679Z,58.10
2017-07-09T10:09:03.902Z,57.20
2017-07-09T10:11:31.390Z,57.10
2017-07-09T10:13:58.845Z,57.40
2017-07-09T10:16:26.310Z,57.40
2017-07-09T10:18:53.867Z,57.50
2017-07-09T10:21:21.335Z,57.50
2017-07-09T10:23:48.882Z,56.90
2017-07-09T10:26:16.448Z,57.20
2017-07-09T10:28:43.990Z,57.40
2017-07-09T10:31:11.544Z,57.10
2017-07-09T10:33:39.114Z,56.80
2017-07-09T10:36:06.564Z,56.60
2017-07-09T10:38:34.190Z,56.20
2017-07-09T10:41:01.641Z,55.30
2017-07-09T10:43:29.109Z,55.20
2017-07-09T10:45:56.593Z,55.70
2017-07-09T10:48:24.065Z,55.40
2017-07-09T10:50:51.522Z,55.40
2017-07-09T10:53:19.030Z,54.20
2017-07-09T10:55:46.491Z,55.20
2017-07-09T10:58:13.963Z,54.90
2017-07-09T11:00:41.423Z,55.50
2017-07-09T11:03:08.877Z,55.60
2017-07-09T11:05:36.367Z,55.00
2017-07-09T11:08:04.590Z,54.80
2017-07-09T11:10:32.089Z,54.80
2017-07-09T11:12:59.536Z,54.00
2017-07-09T11:15:27.007Z,54.00
2017-07-09T11:17:54.507Z,53.70
2017-07-09T11:20:22.009Z,53.20
2017-07-09T11:22:49.470Z,53.30
2017-07-09T11:25:17.028Z,52.70
2017-07-09T11:27:44.648Z,53.40
2017-07-09T11:30:12.155Z,54.10
2017-07-09T11:32:39.616Z,51.80
2017-07-09T11:35:07.227Z,52.20
2017-07-09T11:37:34.724Z,50.90
2017-07-09T11:40:03.249Z,50.30
2017-07-09T11:42:30.727Z,51.40
2017-07-09T11:44:58.217Z,51.10
2017-07-09T11:47:25.690Z,48.60
2017-07-09T11:49:53.941Z,51.20
2017-07-09T11:52:21.515Z,51.10
2017-07-09T11:54:49.084Z,51.20
2017-07-09T11:57:17.320Z,50.50
2017-07-09T11:59:44.797Z,50.40
2017-07-09T12:02:12.366Z,48.80
2017-07-09T12:04:39.898Z,48.30
2017-07-09T12:07:07.388Z,47.50
2017-07-09T12:09:35.605Z,45.70
2017-07-09T12:12:03.105Z,45.70
2017-07-09T12:14:30.571Z,47.60
2017-07-09T12:16:58.116Z,47.40
2017-07-09T12:19:25.683Z,48.40
2017-07-09T12:21:53.146Z,47.10
2017-07-09T12:24:20.685Z,48.30
2017-07-09T12:26:48.259Z,48.10
2017-07-09T12:29:15.723Z,47.20
2017-07-09T12:31:43.950Z,44.90
2017-07-09T12:34:11.409Z,44.60
2017-07-09T12:36:38.890Z,46.30
2017-07-09T12:39:06.453Z,46.30
2017-07-09T12:41:33.919Z,46.30
2017-07-09T12:44:01.479Z,47.60
2017-07-09T12:46:29.024Z,48.70
2017-07-09T12:48:56.595Z,47.90
2017-07-09T12:51:24.110Z,46.30
2017-07-09T12:53:51.571Z,45.90
2017-07-09T12:56:19.053Z,45.90
2017-07-09T12:58:46.525Z,46.70
2017-07-09T13:01:13.981Z,45.90
2017-07-09T13:03:41.539Z,45.80
2017-07-09T13:06:08.998Z,46.70
2017-07-09T13:08:37.271Z,46.90
2017-07-09T13:11:04.839Z,46.30
2017-07-09T13:13:32.307Z,47.00
2017-07-09T13:16:00.558Z,45.50
2017-07-09T13:18:28.119Z,45.50
2017-07-09T13:20:55.588Z,46.30
2017-07-09T13:23:23.820Z,46.50
2017-07-09T13:25:51.336Z,46.40
2017-07-09T13:28:18.869Z,44.40
2017-07-09T13:30:46.318Z,44.70
2017-07-09T13:33:13.883Z,45.30
2017-07-09T13:35:41.350Z,46.60
2017-07-09T13:38:09.604Z,46.10
2017-07-09T13:40:37.068Z,46.10
2017-07-09T13:43:04.528Z,45.70
2017-07-09T13:45:32.804Z,45.50
2017-07-09T13:48:00.354Z,44.80
2017-07-09T13:50:27.828Z,44.70
2017-07-09T13:52:56.085Z,45.50
2017-07-09T13:55:23.533Z,45.20
2017-07-09T13:57:50.997Z,47.00
2017-07-09T14:00:18.463Z,44.60
2017-07-09T14:02:45.920Z,45.10
2017-07-09T14:05:13.469Z,45.00
2017-07-09T14:07:41.038Z,42.60
2017-07-09T14:10:08.581Z,43.60
2017-07-09T14:12:36.146Z,44.20
2017-07-09T14:15:03.661Z,44.20
2017-07-09T14:17:31.167Z,43.50
2017-07-09T14:19:58.728Z,42.90
2017-07-09T14:22:26.282Z,42.20
2017-07-09T14:24:53.837Z,42.60
2017-07-09T14:27:21.400Z,44.50
2017-07-09T14:29:48.954Z,42.60
2017-07-09T14:32:16.523Z,41.70
2017-07-09T14:34:43.977Z,42.40
2017-07-09T14:37:11.532Z,42.50
2017-07-09T14:39:39.086Z,43.60
2017-07-09T14:42:06.646Z,43.00
2017-07-09T14:44:34.097Z,42.90
2017-07-09T14:47:01.557Z,42.60
2017-07-09T14:49:29.024Z,43.40
2017-07-09T14:51:56.598Z,43.50
2017-07-09T14:54:24.060Z,43.00
2017-07-09T14:56:52.325Z,42.70
2017-07-09T14:59:20.929Z,42.80
2017-07-09T15:01:48.455Z,42.80
2017-07-09T15:04:16.012Z,43.10
2017-07-09T15:06:43.465Z,44.50
2017-07-09T15:09:11.027Z,42.90
2017-07-09T15:11:38.570Z,43.50
2017-07-09T15:14:06.044Z,42.00
2017-07-09T15:16:34.323Z,43.30
2017-07-09T15:19:02.678Z,41.80
2017-07-09T15:21:30.143Z,41.80
2017-07-09T15:23:57.602Z,42.10
2017-07-09T15:26:25.071Z,41.80
2017-07-09T15:28:53.335Z,41.60
2017-07-09T15:31:20.894Z,42.10
2017-07-09T15:33:48.440Z,43.20
2017-07-09T15:36:15.899Z,43.10
2017-07-09T15:38:43.461Z,42.10
2017-07-09T15:41:10.915Z,43.90
2017-07-09T15:43:38.392Z,42.60
2017-07-09T15:46:05.891Z,43.20
2017-07-09T15:48:33.350Z,42.70
2017-07-09T15:51:00.908Z,42.60
2017-07-09T15:53:28.396Z,42.30
2017-07-09T15:55:55.854Z,43.10
2017-07-09T15:58:23.318Z,43.20
2017-07-09T16:00:50.887Z,43.30
2017-07-09T16:03:18.346Z,42.30
2017-07-09T16:05:46.573Z,43.80
2017-07-09T16:08:14.075Z,43.70
2017-07-09T16:10:41.639Z,43.70
2017-07-09T16:13:09.865Z,43.30
2017-07-09T16:15:37.358Z,43.10
2017-07-09T16:18:04.835Z,42.10
2017-07-09T16:20:33.062Z,43.90
2017-07-09T16:23:00.562Z,43.80
2017-07-09T16:25:28.809Z,41.70
2017-07-09T16:27:56.261Z,42.20
2017-07-09T16:30:23.847Z,43.80
2017-07-09T16:32:51.414Z,43.70
2017-07-09T16:35:18.947Z,44.00
2017-07-09T16:37:46.515Z,42.00
2017-07-09T16:40:13.961Z,42.20
2017-07-09T16:42:41.543Z,41.40
2017-07-09T16:45:09.812Z,42.50
2017-07-09T16:47:37.370Z,42.50
2017-07-09T16:50:04.826Z,42.90
2017-07-09T16:52:32.385Z,41.90
2017-07-09T16:54:59.944Z,41.50
2017-07-09T16:57:28.693Z,41.20
2017-07-09T16:59:56.273Z,42.80
2017-07-09T17:02:23.872Z,42.70
2017-07-09T17:04:51.397Z,42.20
2017-07-09T17:07:18.862Z,42.40
2017-07-09T17:09:46.372Z,42.10
2017-07-09T17:12:13.830Z,42.00
2017-07-09T17:14:41.327Z,43.00
2017-07-09T17:17:08.782Z,43.10
2017-07-09T17:19:36.249Z,43.50
2017-07-09T17:22:03.692Z,42.80
2017-07-09T17:24:31.153Z,42.00
2017-07-09T17:26:58.619Z,42.40
2017-07-09T17:29:26.177Z,43.40
2017-07-09T17:31:54.420Z,43.20
2017-07-09T17:34:21.893Z,42.60
2017-07-09T17:36:49.359Z,42.70
2017-07-09T17:39:16.915Z,43.60
2017-07-09T17:41:44.381Z,44.10
2017-07-09T17:44:11.921Z,43.80
2017-07-09T17:46:39.375Z,44.30
2017-07-09T17:49:07.006Z,42.00
2017-07-09T17:51:34.507Z,42.40
2017-07-09T17:54:02.070Z,43.20
2017-07-09T17:56:29.627Z,41.90
2017-07-09T17:58:57.099Z,43.30
2017-07-09T18:01:25.349Z,41.40
2017-07-09T18:03:52.866Z,41.30
2017-07-09T18:06:20.361Z,42.20
2017-07-09T18:08:47.957Z,42.50
2017-07-09T18:11:16.193Z,41.50
2017-07-09T18:13:43.769Z,41.50
2017-07-09T18:16:12.018Z,42.30
2017-07-09T18:18:39.493Z,42.20
2017-07-09T18:21:07.062Z,42.10
2017-07-09T18:23:35.293Z,43.00
2017-07-09T18:26:02.767Z,42.70
2017-07-09T18:28:30.225Z,42.80
2017-07-09T18:30:57.785Z,44.20
2017-07-09T18:33:25.360Z,43.60
2017-07-09T18:35:52.910Z,43.10
2017-07-09T18:38:20.365Z,43.20
2017-07-09T18:40:47.832Z,43.90
2017-07-09T18:43:15.392Z,44.00
2017-07-09T18:45:42.950Z,44.60
2017-07-09T18:48:10.418Z,44.40
2017-07-09T18:50:38.650Z,43.70
2017-07-09T18:53:06.135Z,43.70
2017-07-09T18:55:33.602Z,44.60
2017-07-09T18:58:01.869Z,45.40
2017-07-09T19:00:29.453Z,44.80
2017-07-09T19:02:56.987Z,45.30
2017-07-09T19:05:24.525Z,46.00
2017-07-09T19:07:51.995Z,45.40
2017-07-09T19:10:19.564Z,45.30
2017-07-09T19:12:47.122Z,45.30
2017-07-09T19:15:14.718Z,45.30
2017-07-09T19:17:42.239Z,44.50
2017-07-09T19:20:09.799Z,45.30
2017-07-09T19:22:37.288Z,45.10
2017-07-09T19:25:04.744Z,45.30
2017-07-09T19:27:32.223Z,45.70
2017-07-09T19:29:59.720Z,45.80
2017-07-09T19:32:27.283Z,45.80
2017-07-09T19:34:54.834Z,46.40
2017-07-09T19:37:22.385Z,45.50
2017-07-09T19:39:49.884Z,45.60
2017-07-09T19:42:17.415Z,46.00
2017-07-09T19:44:44.911Z,46.60
2017-07-09T19:47:12.436Z,46.60
2017-07-09T19:49:40.683Z,46.90
2017-07-09T19:52:08.137Z,46.60
2017-07-09T19:54:35.593Z,46.70
2017-07-09T19:57:03.891Z,47.80
2017-07-09T19:59:31.376Z,47.00
2017-07-09T20:01:59.606Z,47.30
2017-07-09T20:04:27.157Z,47.20
2017-07-09T20:06:54.626Z,47.60
2017-07-09T20:09:22.079Z,47.80
2017-07-09T20:11:49.658Z,48.20
2017-07-09T20:14:17.217Z,48.50
2017-07-09T20:16:44.690Z,48.80
2017-07-09T20:19:13.348Z,49.00
2017-07-09T20:21:40.819Z,48.90
2017-07-09T20:24:09.139Z,49.90
2017-07-09T20:26:36.649Z,49.30
2017-07-09T20:29:04.889Z,49.80
2017-07-09T20:31:32.350Z,49.70
2017-07-09T20:33:59.817Z,50.10
2017-07-09T20:36:27.275Z,50.20
2017-07-09T20:38:54.836Z,50.50
2017-07-09T20:41:22.290Z,50.50
2017-07-09T20:43:49.753Z,50.80
2017-07-09T20:46:17.210Z,50.70
2017-07-09T20:48:44.675Z,50.70
2017-07-09T20:51:12.221Z,50.90
2017-07-09T20:53:40.849Z,51.00
2017-07-09T20:56:09.350Z,51.00
2017-07-09T20:58:36.954Z,51.70
2017-07-09T21:01:04.454Z,51.70
2017-07-09T21:03:32.074Z,52.00
2017-07-09T21:05:59.530Z,52.20
2017-07-09T21:08:27.086Z,52.30
2017-07-09T21:10:54.542Z,51.90
2017-07-09T21:13:22.032Z,52.60
2017-07-09T21:15:49.534Z,53.10
2017-07-09T21:18:16.985Z,52.60
2017-07-09T21:20:44.455Z,53.20
2017-07-09T21:23:11.917Z,53.10
2017-07-09T21:25:39.473Z,53.00
2017-07-09T21:28:06.938Z,52.90
2017-07-09T21:30:34.483Z,52.90
2017-07-09T21:33:01.933Z,52.80
2017-07-09T21:35:29.402Z,52.50
2017-07-09T21:37:56.971Z,52.30
2017-07-09T21:40:24.433Z,51.70
2017-07-09T21:42:51.982Z,52.10
2017-07-09T21:45:19.537Z,52.20
2017-07-09T21:47:47.118Z,52.00
2017-07-09T21:50:15.374Z,52.00
2017-07-09T21:52:42.944Z,52.00
2017-07-09T21:55:10.406Z,51.80
2017-07-09T21:57:38.671Z,52.20
2017-07-09T22:00:06.231Z,52.20
2017-07-09T22:02:33.740Z,51.90
2017-07-09T22:05:01.236Z,51.90
2017-07-09T22:07:28.704Z,52.10
2017-07-09T22:09:56.259Z,52.30
2017-07-09T22:12:23.823Z,52.30
2017-07-09T22:14:52.050Z,52.40
2017-07-09T22:17:19.541Z,52.00
2017-07-09T22:19:46.993Z,52.10
2017-07-09T22:22:14.875Z,52.10
2017-07-09T22:24:42.435Z,52.10
2017-07-09T22:27:09.991Z,52.20
2017-07-09T22:29:37.555Z,52.30
2017-07-09T22:32:05.169Z,52.40
2017-07-09T22:34:32.633Z,52.50
2017-07-09T22:37:00.098Z,52.30
2017-07-09T22:39:27.578Z,52.50
2017-07-09T22:41:55.034Z,52.80
2017-07-09T22:44:22.485Z,52.60
2017-07-09T22:46:49.959Z,52.90
2017-07-09T22:49:18.233Z,53.60
2017-07-09T22:51:46.453Z,52.80
2017-07-09T22:54:13.956Z,53.00
2017-07-09T22:56:41.519Z,52.70
2017-07-09T22:59:09.090Z,52.80
2017-07-09T23:01:44.066Z,52.90
2017-07-09T23:04:11.618Z,52.90
2017-07-09T23:06:39.126Z,53.00
2017-07-09T23:09:06.589Z,53.10
2017-07-09T23:11:34.854Z,53.50
2017-07-09T23:14:02.409Z,53.40
2017-07-09T23:16:29.861Z,53.50
2017-07-09T23:18:57.319Z,53.60
2017-07-09T23:21:24.768Z,53.20
2017-07-09T23:23:52.433Z,53.50
2017-07-09T23:26:19.965Z,53.30
2017-07-09T23:28:47.438Z,53.50
2017-07-09T23:31:15.017Z,53.60
2017-07-09T23:33:43.281Z,54.10
2017-07-09T23:36:10.845Z,53.50
2017-07-09T23:38:38.301Z,54.10
2017-07-09T23:41:05.870Z,53.60
2017-07-09T23:43:33.417Z,53.70
2017-07-09T23:46:00.886Z,53.50
2017-07-09T23:48:28.336Z,53.70
2017-07-09T23:50:55.889Z,53.60
2017-07-09T23:53:23.447Z,53.60
2017-07-09T23:55:52.584Z,53.60
2017-07-09T23:58:20.105Z,53.50
